createdAt,value
2023-05-08T00:02:18.521Z,11.76
2023-05-08T00:05:21.378Z,11.99
2023-05-08T00:08:23.809Z,11.85
2023-05-08T00:11:26.597Z,11.64
2023-05-08T00:14:29.155Z,11.56
2023-05-08T00:17:32.157Z,11.39
2023-05-08T00:20:34.609Z,11.58
2023-05-08T00:23:37.268Z,11.55
2023-05-08T00:26:39.952Z,11.65
2023-05-08T00:29:43.149Z,11.62
2023-05-08T00:32:45.570Z,11.62
2023-05-08T00:35:48.413Z,11.69
2023-05-08T00:38:50.889Z,11.70
2023-05-08T00:41:53.864Z,11.73
2023-05-08T00:44:56.371Z,11.42
2023-05-08T00:47:59.979Z,11.47
2023-05-08T00:51:06.478Z,11.50
2023-05-08T00:54:09.613Z,11.53
2023-05-08T00:57:12.782Z,11.52
2023-05-08T01:00:18.518Z,11.53
2023-05-08T01:03:21.462Z,11.51
2023-05-08T01:06:24.182Z,11.22
2023-05-08T01:09:26.560Z,11.24
2023-05-08T01:12:47.536Z,11.37
2023-05-08T01:16:11.998Z,11.39
2023-05-08T01:19:21.011Z,11.39
2023-05-08T01:22:45.259Z,11.35
2023-05-08T01:26:16.116Z,11.30
2023-05-08T01:29:55.808Z,11.39
2023-05-08T01:33:04.752Z,11.45
2023-05-08T01:36:20.813Z,11.38
2023-05-08T01:39:45.116Z,11.38
2023-05-08T01:43:16.579Z,11.38
2023-05-08T01:46:32.106Z,11.15
2023-05-08T01:49:40.542Z,11.28
2023-05-08T01:52:58.452Z,11.34
2023-05-08T01:56:08.129Z,11.32
2023-05-08T01:59:15.062Z,11.41
2023-05-08T02:02:19.647Z,11.52
2023-05-08T02:05:23.946Z,11.55
2023-05-08T02:08:29.742Z,11.53
2023-05-08T02:11:34.984Z,11.44
2023-05-08T02:14:39.782Z,11.47
2023-05-08T02:17:46.186Z,11.47
2023-05-08T02:20:51.911Z,11.42
2023-05-08T02:23:57.880Z,11.36
2023-05-08T02:27:00.877Z,11.36
2023-05-08T02:30:04.270Z,11.40
2023-05-08T02:33:10.626Z,11.45
2023-05-08T02:36:17.174Z,11.45
2023-05-08T02:39:21.880Z,11.43
2023-05-08T02:42:24.997Z,11.32
2023-05-08T02:45:38.612Z,11.36
2023-05-08T02:48:55.105Z,11.31
2023-05-08T02:52:08.152Z,11.31
2023-05-08T02:55:51.825Z,11.30
2023-05-08T02:59:08.257Z,11.19
2023-05-08T03:02:44.618Z,11.17
2023-05-08T03:05:52.842Z,11.14
2023-05-08T03:09:01.658Z,11.05
2023-05-08T03:12:17.177Z,11.06
2023-05-08T03:15:24.389Z,11.02
2023-05-08T03:18:45.436Z,10.95
2023-05-08T03:21:49.257Z,10.76
2023-05-08T03:24:54.759Z,10.97
2023-05-08T03:28:00.117Z,10.91
2023-05-08T03:31:06.546Z,10.99
2023-05-08T03:34:12.200Z,10.83
2023-05-08T03:37:14.774Z,11.05
2023-05-08T03:40:17.956Z,11.10
2023-05-08T03:43:21.632Z,11.04
2023-05-08T03:46:26.649Z,11.22
2023-05-08T03:49:30.740Z,11.22
2023-05-08T03:52:33.501Z,11.27
2023-05-08T03:55:36.232Z,11.38
2023-05-08T03:58:53.165Z,11.25
2023-05-08T04:02:04.386Z,11.36
2023-05-08T04:05:34.451Z,11.36
2023-05-08T04:08:44.952Z,11.48
2023-05-08T04:12:04.304Z,11.51
2023-05-08T04:15:14.435Z,11.50
2023-05-08T04:18:22.588Z,11.57
2023-05-08T04:21:26.037Z,11.55
2023-05-08T04:24:33.938Z,11.61
2023-05-08T04:27:38.765Z,11.54
2023-05-08T04:30:42.716Z,11.58
2023-05-08T04:33:45.800Z,11.53
2023-05-08T04:36:48.838Z,11.40
2023-05-08T04:39:51.765Z,11.38
2023-05-08T04:42:55.523Z,11.37
2023-05-08T04:45:58.359Z,11.20
2023-05-08T04:49:01.485Z,11.16
2023-05-08T04:52:04.807Z,11.35
2023-05-08T04:55:08.538Z,11.59
2023-05-08T04:58:11.293Z,11.55
2023-05-08T05:01:14.274Z,11.46
2023-05-08T05:04:17.083Z,11.56
2023-05-08T05:07:20.023Z,11.70
2023-05-08T05:10:23.755Z,11.72
2023-05-08T05:13:27.252Z,11.56
2023-05-08T05:16:30.272Z,11.63
2023-05-08T05:19:33.365Z,11.54
2023-05-08T05:22:35.837Z,11.59
2023-05-08T05:25:39.332Z,11.62
2023-05-08T05:28:42.427Z,11.67
2023-05-08T05:31:45.445Z,11.55
2023-05-08T05:34:48.889Z,11.46
2023-05-08T05:37:52.528Z,11.35
2023-05-08T05:40:55.312Z,11.54
2023-05-08T05:43:58.701Z,11.50
2023-05-08T05:47:05.434Z,11.48
2023-05-08T05:50:09.603Z,11.50
2023-05-08T05:53:12.981Z,11.45
2023-05-08T05:56:16.215Z,11.74
2023-05-08T05:59:19.187Z,11.63
2023-05-08T06:02:22.327Z,11.76
2023-05-08T06:05:25.318Z,11.90
2023-05-08T06:08:27.894Z,11.87
2023-05-08T06:11:32.122Z,12.05
2023-05-08T06:14:34.658Z,11.90
2023-05-08T06:17:38.178Z,12.14
2023-05-08T06:20:40.920Z,11.85
2023-05-08T06:23:43.943Z,11.98
2023-05-08T06:26:49.146Z,12.13
2023-05-08T06:29:53.448Z,12.24
2023-05-08T06:32:56.950Z,12.27
2023-05-08T06:35:59.856Z,12.46
2023-05-08T06:39:05.986Z,12.47
2023-05-08T06:42:09.148Z,12.49
2023-05-08T06:45:13.310Z,12.40
2023-05-08T06:48:16.352Z,12.48
2023-05-08T06:51:19.200Z,12.84
2023-05-08T06:54:22.109Z,13.03
2023-05-08T06:57:27.157Z,13.42
2023-05-08T07:00:30.047Z,13.93
2023-05-08T07:03:32.700Z,15.29
2023-05-08T07:06:35.466Z,16.26
2023-05-08T07:09:37.853Z,17.11
2023-05-08T07:12:41.026Z,18.25
2023-05-08T07:15:43.614Z,18.94
2023-05-08T07:18:46.434Z,19.22
2023-05-08T07:21:48.937Z,18.24
2023-05-08T07:24:51.855Z,17.74
2023-05-08T07:27:54.271Z,18.34
2023-05-08T07:30:57.366Z,18.52
2023-05-08T07:33:59.862Z,17.92
2023-05-08T07:37:03.103Z,18.74
2023-05-08T07:40:06.486Z,18.95
2023-05-08T07:43:11.313Z,19.65
2023-05-08T07:46:18.024Z,20.14
2023-05-08T07:49:20.911Z,19.81
2023-05-08T07:52:23.639Z,19.92
2023-05-08T07:55:26.541Z,19.61
2023-05-08T07:58:28.969Z,20.45
2023-05-08T08:01:32.458Z,20.43
2023-05-08T08:04:35.438Z,21.19
2023-05-08T08:07:38.209Z,21.46
2023-05-08T08:10:40.980Z,21.12
2023-05-08T08:13:43.345Z,21.40
2023-05-08T08:16:46.106Z,21.32
2023-05-08T08:19:48.775Z,21.68
2023-05-08T08:22:51.556Z,21.43
2023-05-08T08:25:54.323Z,21.83
2023-05-08T08:28:57.413Z,21.94
2023-05-08T08:32:00.727Z,22.08
2023-05-08T08:35:03.750Z,21.91
2023-05-08T08:38:06.206Z,22.24
2023-05-08T08:41:09.246Z,22.11
2023-05-08T08:44:11.738Z,22.42
2023-05-08T08:47:17.670Z,22.51
2023-05-08T08:50:20.903Z,22.97
2023-05-08T08:53:31.011Z,22.79
2023-05-08T08:56:36.450Z,22.53
2023-05-08T08:59:40.715Z,22.53
2023-05-08T09:02:43.565Z,22.94
2023-05-08T09:05:49.401Z,22.91
2023-05-08T09:08:55.621Z,22.93
2023-05-08T09:11:58.424Z,23.10
2023-05-08T09:15:01.017Z,23.66
2023-05-08T09:18:04.402Z,23.19
2023-05-08T09:21:07.267Z,23.33
2023-05-08T09:24:10.060Z,23.42
2023-05-08T09:27:32.537Z,23.66
2023-05-08T09:30:49.636Z,23.56
2023-05-08T09:33:52.296Z,23.47
2023-05-08T09:36:56.056Z,23.49
2023-05-08T09:40:21.966Z,23.31
2023-05-08T09:43:24.879Z,23.56
2023-05-08T09:46:27.558Z,23.39
2023-05-08T09:49:30.491Z,24.31
2023-05-08T09:52:33.781Z,23.94
2023-05-08T09:55:48.866Z,24.11
2023-05-08T09:58:51.506Z,24.11
2023-05-08T10:01:55.107Z,23.20
2023-05-08T10:04:57.844Z,23.88
2023-05-08T10:08:22.500Z,23.15
2023-05-08T10:11:25.275Z,23.78
2023-05-08T10:14:27.852Z,23.81
2023-05-08T10:17:53.716Z,23.62
2023-05-08T10:20:59.364Z,23.73
2023-05-08T10:24:06.410Z,23.57
2023-05-08T10:27:20.004Z,23.85
2023-05-08T10:30:26.926Z,23.73
2023-05-08T10:33:34.704Z,23.56
2023-05-08T10:36:37.651Z,24.01
2023-05-08T10:39:41.691Z,23.84
2023-05-08T10:42:45.538Z,23.48
2023-05-08T10:45:48.472Z,23.80
2023-05-08T10:49:00.843Z,23.96
2023-05-08T10:52:45.101Z,23.41
2023-05-08T10:55:51.146Z,23.89
2023-05-08T10:59:01.070Z,23.68
2023-05-08T11:02:08.353Z,23.95
2023-05-08T11:05:18.626Z,23.46
2023-05-08T11:08:25.005Z,23.67
2023-05-08T11:11:33.517Z,23.83
2023-05-08T11:14:41.773Z,23.88
2023-05-08T11:17:54.294Z,23.50
2023-05-08T11:21:04.137Z,23.19
2023-05-08T11:24:11.835Z,23.19
2023-05-08T11:27:15.735Z,22.57
2023-05-08T11:30:22.045Z,23.43
2023-05-08T11:33:48.130Z,23.51
2023-05-08T11:37:02.837Z,23.74
2023-05-08T11:40:43.125Z,23.08
2023-05-08T11:43:48.330Z,22.88
2023-05-08T11:46:52.295Z,22.52
2023-05-08T11:49:55.689Z,21.99
2023-05-08T11:52:58.964Z,22.16
2023-05-08T11:56:01.564Z,22.32
2023-05-08T11:59:09.450Z,22.24
2023-05-08T12:02:12.091Z,22.39
2023-05-08T12:05:15.180Z,21.99
2023-05-08T12:08:18.683Z,21.63
2023-05-08T12:11:27.366Z,21.87
2023-05-08T12:14:30.450Z,21.96
2023-05-08T12:17:33.370Z,21.44
2023-05-08T12:20:36.601Z,21.64
2023-05-08T12:23:39.751Z,21.59
2023-05-08T12:26:42.282Z,21.66
2023-05-08T12:29:46.663Z,21.75
2023-05-08T12:32:49.942Z,21.33
2023-05-08T12:35:52.838Z,21.62
2023-05-08T12:39:09.641Z,21.34
2023-05-08T12:42:12.331Z,20.76
2023-05-08T12:45:30.203Z,20.52
2023-05-08T12:48:33.370Z,20.96
2023-05-08T12:51:36.074Z,21.32
2023-05-08T12:54:43.950Z,21.27
2023-05-08T12:57:46.430Z,21.48
2023-05-08T13:00:54.136Z,21.72
2023-05-08T13:04:02.181Z,21.28
2023-05-08T13:07:05.765Z,21.20
2023-05-08T13:10:09.169Z,21.20
2023-05-08T13:13:13.623Z,21.69
2023-05-08T13:16:16.104Z,21.88
2023-05-08T13:19:19.434Z,21.69
2023-05-08T13:22:23.269Z,22.15
2023-05-08T13:25:26.039Z,22.08
2023-05-08T13:28:28.587Z,22.10
2023-05-08T13:31:31.453Z,22.28
2023-05-08T13:34:34.917Z,21.93
2023-05-08T13:37:38.938Z,21.86
2023-05-08T13:40:41.480Z,21.43
2023-05-08T13:43:45.544Z,21.05
2023-05-08T13:46:48.548Z,21.50
2023-05-08T13:49:51.252Z,21.28
2023-05-08T13:52:55.165Z,21.20
2023-05-08T13:55:58.111Z,20.78
2023-05-08T13:59:00.659Z,21.10
2023-05-08T14:02:03.548Z,21.13
2023-05-08T14:05:08.871Z,21.57
2023-05-08T14:08:11.441Z,21.35
2023-05-08T14:11:14.257Z,21.54
2023-05-08T14:14:16.772Z,21.57
2023-05-08T14:17:20.479Z,21.95
2023-05-08T14:20:22.982Z,21.97
2023-05-08T14:23:25.682Z,21.76
2023-05-08T14:26:28.156Z,21.57
2023-05-08T14:29:31.083Z,21.58
2023-05-08T14:32:33.603Z,21.32
2023-05-08T14:35:38.026Z,21.34
2023-05-08T14:38:40.436Z,21.34
2023-05-08T14:41:55.239Z,21.04
2023-05-08T14:45:08.351Z,20.51
2023-05-08T14:48:11.270Z,20.53
2023-05-08T14:51:14.397Z,20.34
2023-05-08T14:54:17.370Z,20.43
2023-05-08T14:57:20.782Z,20.55
2023-05-08T15:00:23.671Z,20.10
2023-05-08T15:03:26.493Z,20.48
2023-05-08T15:06:31.062Z,20.31
2023-05-08T15:09:33.636Z,20.18
2023-05-08T15:12:36.270Z,20.05
2023-05-08T15:15:38.891Z,20.35
2023-05-08T15:18:42.190Z,20.36
2023-05-08T15:21:45.123Z,20.35
2023-05-08T15:24:47.957Z,20.38
2023-05-08T15:27:52.938Z,20.56
2023-05-08T15:30:55.828Z,20.54
2023-05-08T15:33:58.231Z,20.35
2023-05-08T15:37:01.261Z,20.02
2023-05-08T15:40:04.059Z,20.02
2023-05-08T15:43:06.999Z,20.12
2023-05-08T15:46:09.578Z,20.12
2023-05-08T15:49:12.483Z,20.13
2023-05-08T15:52:18.665Z,19.84
2023-05-08T15:55:23.507Z,19.91
2023-05-08T15:58:26.807Z,19.71
2023-05-08T16:01:29.642Z,19.55
2023-05-08T16:04:32.736Z,19.50
2023-05-08T16:07:35.250Z,19.48
2023-05-08T16:10:38.373Z,19.21
2023-05-08T16:13:40.725Z,19.35
2023-05-08T16:16:43.965Z,19.13
2023-05-08T16:19:47.285Z,19.18
2023-05-08T16:22:55.124Z,18.91
2023-05-08T16:25:57.612Z,18.76
2023-05-08T16:29:00.297Z,18.60
2023-05-08T16:32:02.837Z,18.58
2023-05-08T16:35:07.105Z,18.66
2023-05-08T16:38:09.684Z,18.53
2023-05-08T16:41:13.611Z,18.43
2023-05-08T16:44:16.021Z,18.38
2023-05-08T16:47:18.783Z,18.24
2023-05-08T16:50:21.233Z,18.22
2023-05-08T16:53:24.254Z,18.01
2023-05-08T16:56:26.933Z,17.71
2023-05-08T16:59:30.715Z,17.39
2023-05-08T17:02:33.340Z,17.42
2023-05-08T17:05:37.592Z,17.23
2023-05-08T17:08:39.955Z,17.11
2023-05-08T17:11:42.581Z,17.08
2023-05-08T17:14:45.153Z,16.59
2023-05-08T17:17:49.499Z,16.44
2023-05-08T17:20:51.932Z,16.58
2023-05-08T17:23:54.851Z,16.64
2023-05-08T17:26:57.212Z,16.45
2023-05-08T17:29:59.899Z,16.56
2023-05-08T17:33:03.821Z,16.29
2023-05-08T17:36:07.189Z,16.23
2023-05-08T17:39:09.792Z,16.00
2023-05-08T17:42:12.484Z,15.94
2023-05-08T17:45:14.842Z,15.66
2023-05-08T17:48:17.572Z,15.22
2023-05-08T17:51:20.063Z,15.14
2023-05-08T17:54:22.730Z,15.12
2023-05-08T17:57:25.115Z,15.03
2023-05-08T18:00:27.900Z,14.65
2023-05-08T18:03:32.009Z,14.60
2023-05-08T18:06:34.429Z,14.36
2023-05-08T18:09:37.141Z,14.10
2023-05-08T18:12:39.825Z,14.08
2023-05-08T18:15:42.627Z,14.11
2023-05-08T18:18:45.679Z,14.05
2023-05-08T18:21:48.357Z,14.04
2023-05-08T18:24:50.775Z,13.91
2023-05-08T18:27:53.743Z,13.81
2023-05-08T18:30:56.264Z,13.79
2023-05-08T18:33:59.244Z,13.69
2023-05-08T18:37:01.703Z,13.82
2023-05-08T18:40:05.198Z,13.83
2023-05-08T18:43:07.592Z,13.64
2023-05-08T18:46:14.285Z,13.79
2023-05-08T18:49:16.842Z,13.68
2023-05-08T18:52:19.581Z,13.56
2023-05-08T18:55:23.074Z,13.67
2023-05-08T18:58:25.911Z,13.61
2023-05-08T19:01:28.352Z,13.68
2023-05-08T19:04:33.146Z,13.68
2023-05-08T19:07:35.929Z,13.53
2023-05-08T19:10:39.491Z,13.28
2023-05-08T19:13:41.919Z,13.35
2023-05-08T19:16:44.611Z,13.31
2023-05-08T19:19:46.957Z,13.14
2023-05-08T19:22:49.695Z,13.00
2023-05-08T19:25:52.905Z,12.91
2023-05-08T19:28:55.754Z,13.05
2023-05-08T19:31:58.203Z,13.03
2023-05-08T19:35:02.634Z,12.81
2023-05-08T19:38:05.022Z,12.75
2023-05-08T19:41:07.755Z,12.71
2023-05-08T19:44:10.561Z,12.61
2023-05-08T19:47:13.979Z,12.60
2023-05-08T19:50:18.169Z,12.63
2023-05-08T19:53:20.884Z,12.44
2023-05-08T19:56:23.282Z,12.52
2023-05-08T19:59:26.043Z,12.50
2023-05-08T20:02:28.586Z,12.49
2023-05-08T20:05:31.349Z,12.36
2023-05-08T20:08:33.894Z,12.50
2023-05-08T20:11:36.666Z,12.31
2023-05-08T20:14:40.865Z,12.25
2023-05-08T20:17:43.535Z,12.26
2023-05-08T20:20:46.248Z,12.17
2023-05-08T20:23:49.155Z,12.17
2023-05-08T20:26:54.496Z,12.09
2023-05-08T20:29:57.355Z,12.01
2023-05-08T20:33:04.816Z,12.03
2023-05-08T20:36:07.993Z,12.08
2023-05-08T20:39:10.464Z,12.02
2023-05-08T20:42:13.248Z,12.04
2023-05-08T20:45:15.863Z,11.87
2023-05-08T20:48:18.824Z,11.87
2023-05-08T20:51:21.609Z,11.70
2023-05-08T20:54:24.291Z,11.76
2023-05-08T20:57:26.833Z,11.74
2023-05-08T21:00:29.688Z,11.68
2023-05-08T21:03:32.149Z,11.66
2023-05-08T21:06:34.944Z,11.61
2023-05-08T21:09:37.406Z,11.60
2023-05-08T21:12:40.258Z,11.64
2023-05-08T21:15:42.603Z,11.60
2023-05-08T21:18:45.500Z,11.55
2023-05-08T21:21:48.091Z,11.48
2023-05-08T21:24:50.930Z,11.39
2023-05-08T21:27:55.277Z,11.48
2023-05-08T21:30:58.157Z,11.47
2023-05-08T21:34:01.044Z,11.37
2023-05-08T21:37:03.944Z,11.43
2023-05-08T21:40:07.010Z,11.38
2023-05-08T21:43:09.919Z,11.38
2023-05-08T21:46:12.442Z,11.45
2023-05-08T21:49:15.235Z,11.32
2023-05-08T21:52:22.096Z,11.32
2023-05-08T21:55:25.042Z,11.29
2023-05-08T21:58:27.521Z,11.22
2023-05-08T22:01:31.298Z,11.20
2023-05-08T22:04:34.031Z,11.10
2023-05-08T22:07:36.412Z,11.11
2023-05-08T22:10:39.177Z,11.06
2023-05-08T22:13:42.112Z,10.95
2023-05-08T22:16:45.037Z,10.98
2023-05-08T22:19:47.557Z,10.90
2023-05-08T22:22:50.604Z,10.92
2023-05-08T22:25:53.014Z,10.83
2023-05-08T22:28:55.960Z,10.91
2023-05-08T22:31:59.030Z,10.84
2023-05-08T22:35:01.786Z,10.90
2023-05-08T22:38:04.265Z,10.79
2023-05-08T22:41:07.242Z,10.81
2023-05-08T22:44:10.803Z,10.81
2023-05-08T22:47:13.878Z,10.84
2023-05-08T22:50:17.271Z,10.79
2023-05-08T22:53:20.234Z,10.78
2023-05-08T22:56:22.677Z,10.66
2023-05-08T22:59:26.340Z,10.70
2023-05-08T23:02:33.454Z,10.63
2023-05-08T23:05:36.585Z,10.64
2023-05-08T23:08:39.093Z,10.48
2023-05-08T23:11:41.884Z,10.40
2023-05-08T23:14:44.264Z,10.40
2023-05-08T23:17:47.062Z,10.19
2023-05-08T23:20:49.593Z,10.19
2023-05-08T23:23:52.927Z,10.29
2023-05-08T23:26:55.440Z,10.31
2023-05-08T23:29:58.115Z,10.33
2023-05-08T23:33:00.685Z,10.35
2023-05-08T23:36:06.016Z,10.25
2023-05-08T23:39:08.389Z,10.00
2023-05-08T23:42:11.421Z,10.13
2023-05-08T23:45:14.089Z,10.06
2023-05-08T23:48:17.312Z,10.04
2023-05-08T23:51:19.648Z,10.02
2023-05-08T23:54:22.366Z,10.06
2023-05-08T23:57:25.009Z,10.08
